Time;durP1;ratioP1;P1;durP2;ratioP2;P2;SDS_P1;SDS_P2;PMS_P1;PMS_P2;Temp;Humidity;BMP_temperature;BMP_pressure;BME280_temperature;BME280_humidity;BME280_pressure;Samples;Min_cycle;Max_cycle;Signal;HPM_P1;HPM_P2
2022/09/30 00:01:38;;;;;;;12.23;7.68;;;;;;;13.50;76.41;100355.81;6278358;22;20023;-68
2022/09/30 00:04:20;;;;;;;13.05;8.38;;;;;;;13.46;76.03;100350.16;6278593;22;20026;-67
2022/09/30 00:06:47;;;;;;;16.35;8.63;;;;;;;13.43;76.80;100344.50;6252010;22;20343;-68
2022/09/30 00:09:15;;;;;;;14.02;8.00;;;;;;;13.45;75.62;100353.28;6279655;22;20019;-68
2022/09/30 00:11:43;;;;;;;14.77;7.95;;;;;;;13.31;75.49;100355.53;6279447;22;20039;-68
2022/09/30 00:14:19;;;;;;;15.73;8.57;;;;;;;13.23;75.34;100357.22;6250968;22;20027;-69
2022/09/30 00:16:46;;;;;;;14.43;8.07;;;;;;;13.10;75.52;100357.50;6278727;22;20016;-68
2022/09/30 00:19:14;;;;;;;16.92;8.07;;;;;;;13.14;77.16;100358.47;6279764;22;20148;-68
2022/09/30 00:21:41;;;;;;;16.15;8.00;;;;;;;13.33;77.85;100351.28;6279529;22;20012;-68
2022/09/30 00:24:09;;;;;;;16.05;8.55;;;;;;;13.08;77.36;100346.78;6252690;22;20016;-68
2022/09/30 00:26:36;;;;;;;14.13;8.27;;;;;;;13.18;77.30;100353.88;6278798;22;20474;-68
2022/09/30 00:29:04;;;;;;;14.85;7.78;;;;;;;13.04;77.01;100358.88;6278406;22;20016;-69
2022/09/30 00:31:32;;;;;;;11.75;7.45;;;;;;;12.88;77.39;100361.41;6279329;22;20015;-68
2022/09/30 00:34:06;;;;;;;12.57;7.97;;;;;;;13.09;78.24;100369.72;6201696;22;20026;-68
2022/09/30 00:36:38;;;;;;;12.77;7.55;;;;;;;12.79;77.24;100366.19;6278676;22;20024;-68
2022/09/30 00:39:07;;;;;;;12.30;8.00;;;;;;;12.96;78.14;100355.00;6252999;22;20012;-69
2022/09/30 00:41:36;;;;;;;15.40;8.07;;;;;;;12.94;78.01;100356.47;6278515;22;20018;-68
2022/09/30 00:44:38;;;;;;;12.15;7.32;;;;;;;13.05;78.34;100347.47;6279587;22;20126;-66
2022/09/30 00:47:29;;;;;;;13.00;7.90;;;;;;;13.19;77.96;100359.06;6240354;22;20020;-67
2022/09/30 00:49:59;;;;;;;13.98;7.90;;;;;;;13.21;77.28;100355.97;6279039;22;20414;-68
2022/09/30 00:52:26;;;;;;;16.58;7.78;;;;;;;13.14;77.19;100361.22;6251918;22;20020;-68
2022/09/30 00:54:57;;;;;;;11.90;7.28;;;;;;;12.72;76.92;100359.56;6279428;22;20016;-68
2022/09/30 00:57:24;;;;;;;;;;;;;;;12.88;77.42;100364.19;6251753;22;20019;-68
2022/09/30 00:59:51;;;;;;;15.48;7.72;;;;;;;12.95;78.76;100363.63;6251545;22;19915;-68
2022/09/30 01:02:19;;;;;;;15.55;8.07;;;;;;;13.18;78.70;100354.66;6252109;22;20020;-68
2022/09/30 01:04:46;;;;;;;13.77;7.53;;;;;;;13.22;77.97;100366.66;6252505;22;20455;-67
2022/09/30 01:07:14;;;;;;;14.23;7.90;;;;;;;13.26;78.21;100367.63;6226370;22;20032;-68
2022/09/30 01:09:42;;;;;;;11.32;7.13;;;;;;;13.30;78.04;100368.53;6251206;22;20024;-68
2022/09/30 01:12:16;;;;;;;13.27;7.35;;;;;;;13.38;78.32;100375.97;6278821;22;20016;-68
2022/09/30 01:14:44;;;;;;;12.35;7.63;;;;;;;13.39;77.56;100369.28;6279479;22;20022;-67
2022/09/30 01:17:11;;;;;;;14.52;6.90;;;;;;;13.27;75.49;100360.94;6251537;22;20023;-68
2022/09/30 01:19:56;;;;;;;14.50;7.53;;;;;;;12.86;73.86;100368.41;6279651;22;20029;-68
2022/09/30 01:22:38;;;;;;;13.57;7.65;;;;;;;12.79;77.27;100374.50;6277569;22;20016;-68
2022/09/30 01:25:27;;;;;;;13.77;7.47;;;;;;;12.66;78.68;100363.69;6228312;22;20012;-68
2022/09/30 01:28:31;;;;;;;15.80;7.28;;;;;;;12.60;76.19;100368.63;6277871;22;20439;-68
2022/09/30 01:31:06;;;;;;;14.05;7.22;;;;;;;12.50;78.03;100366.22;6278011;22;20015;-68
2022/09/30 01:33:39;;;;;;;12.00;7.38;;;;;;;12.85;78.90;100364.03;6227176;22;20023;-68
2022/09/30 01:36:31;;;;;;;11.85;7.35;;;;;;;12.56;78.05;100364.88;6278200;22;20029;-68
2022/09/30 01:39:09;;;;;;;13.00;7.15;;;;;;;12.69;78.15;100365.78;6277508;22;20020;-68
2022/09/30 01:41:58;;;;;;;16.70;8.25;;;;;;;12.70;78.59;100370.97;6226597;22;20011;-67
2022/09/30 01:45:06;;;;;;;10.30;6.60;;;;;;;12.57;77.79;100368.47;6251358;22;20339;-68
2022/09/30 01:47:43;;;;;;;15.10;7.60;;;;;;;12.69;79.78;100360.25;6278382;22;20023;-67
2022/09/30 01:50:21;;;;;;;15.43;7.53;;;;;;;12.67;78.48;100368.88;6278134;22;20011;-67
2022/09/30 01:52:48;;;;;;;12.48;7.00;;;;;;;12.82;78.85;100370.22;6251740;22;20019;-67
2022/09/30 01:55:28;;;;;;;11.45;7.00;;;;;;;12.78;77.42;100375.63;6278794;22;20013;-67
2022/09/30 01:58:04;;;;;;;;;;;;;;;12.66;78.53;100383.03;6252698;22;20029;-68
2022/09/30 02:00:35;;;;;;;13.27;7.65;;;;;;;12.48;77.40;100379.56;6249978;22;19965;-68
2022/09/30 02:03:21;;;;;;;12.32;7.53;;;;;;;11.84;75.76;100378.88;6252138;22;20019;-68
2022/09/30 02:05:56;;;;;;;14.05;7.60;;;;;;;12.24;80.00;100373.84;6277640;22;20020;-68
2022/09/30 02:08:28;;;;;;;14.30;7.35;;;;;;;12.48;80.06;100372.06;6278187;22;20016;-68
2022/09/30 02:11:01;;;;;;;11.98;7.03;;;;;;;12.67;79.11;100368.88;6251125;22;20012;-67
2022/09/30 02:13:31;;;;;;;16.38;7.70;;;;;;;12.71;78.11;100371.78;6276653;22;20024;-67
2022/09/30 02:16:11;;;;;;;13.90;7.07;;;;;;;12.65;78.14;100373.94;6278170;22;20489;-67
2022/09/30 02:18:46;;;;;;;12.02;7.13;;;;;;;12.42;78.17;100373.44;6253164;22;20027;-68
2022/09/30 02:21:18;;;;;;;11.07;6.95;;;;;;;12.19;78.97;100365.75;6278212;22;20008;-67
2022/09/30 02:23:48;;;;;;;14.50;7.10;;;;;;;12.35;79.35;100370.38;6251934;22;20466;-68
2022/09/30 02:26:22;;;;;;;11.45;7.35;;;;;;;12.50;78.79;100368.97;6250569;22;20016;-67
2022/09/30 02:28:58;;;;;;;12.90;6.97;;;;;;;12.53;78.51;100368.31;6277773;22;20011;-68
2022/09/30 02:31:27;;;;;;;12.68;7.65;;;;;;;12.46;78.75;100365.28;6225249;22;20119;-67
2022/09/30 02:33:59;;;;;;;12.45;7.13;;;;;;;12.53;78.46;100362.81;6277987;22;20026;-67
2022/09/30 02:36:31;;;;;;;10.95;7.60;;;;;;;12.33;78.38;100361.63;6278098;22;20363;-67
2022/09/30 02:39:05;;;;;;;10.20;7.15;;;;;;;12.37;79.08;100359.00;6278209;22;20019;-63
2022/09/30 02:41:38;;;;;;;10.18;6.70;;;;;;;12.43;78.65;100368.69;6251148;22;20011;-63
2022/09/30 02:44:05;;;;;;;12.27;6.85;;;;;;;12.28;78.54;100366.50;6250525;22;20012;-63
2022/09/30 02:46:49;;;;;;;13.18;7.75;;;;;;;12.28;79.69;100367.34;6277662;22;20459;-64
2022/09/30 02:49:28;;;;;;;14.10;7.50;;;;;;;12.08;80.03;100381.09;6250790;22;20012;-63
2022/09/30 02:52:00;;;;;;;14.00;7.85;;;;;;;12.45;81.64;100378.28;6224402;22;20015;-63
2022/09/30 02:54:33;;;;;;;10.52;6.55;;;;;;;12.67;81.13;100371.66;6251028;22;20020;-62
2022/09/30 02:57:13;;;;;;;10.55;6.70;;;;;;;12.77;79.87;100379.53;6250386;22;20020;-61
2022/09/30 02:59:40;;;;;;;13.32;6.22;;;;;;;12.85;79.08;100383.41;6277949;22;20467;-62
2022/09/30 03:02:08;;;;;;;10.48;6.53;;;;;;;12.93;79.82;100385.28;6235897;22;20012;-62
2022/09/30 03:04:38;;;;;;;11.27;6.90;;;;;;;12.83;79.22;100386.47;6250876;22;20038;-62
2022/09/30 03:07:06;;;;;;;10.95;6.90;;;;;;;12.88;79.43;100382.72;6250994;22;20471;-62
2022/09/30 03:09:34;;;;;;;10.98;6.88;;;;;;;12.85;78.68;100386.94;6251220;22;20022;-63
2022/09/30 03:12:14;;;;;;;11.27;6.85;;;;;;;12.92;79.04;100389.97;6277384;22;20443;-62
2022/09/30 03:15:09;;;;;;;12.85;6.53;;;;;;;12.99;79.72;100398.56;6277988;22;20016;-63
2022/09/30 03:17:49;;;;;;;10.93;6.50;;;;;;;13.01;78.85;100398.22;6224433;22;20502;-63
2022/09/30 03:20:31;;;;;;;14.07;6.15;;;;;;;13.00;78.92;100399.38;6277887;22;20015;-63
2022/09/30 03:23:33;;;;;;;9.88;6.00;;;;;;;12.95;77.80;100410.63;6276629;22;20016;-63
2022/09/30 03:26:15;;;;;;;10.63;6.70;;;;;;;12.50;79.01;100415.94;6241898;22;20027;-63
2022/09/30 03:29:07;;;;;;;9.55;6.32;;;;;;;12.64;79.14;100427.56;6277589;22;20043;-63
2022/09/30 03:32:06;;;;;;;11.20;6.30;;;;;;;12.55;79.27;100434.28;6277967;22;20011;-63
2022/09/30 03:35:10;;;;;;;10.50;6.75;;;;;;;12.67;79.39;100423.34;6277976;22;20030;-63
2022/09/30 03:37:37;;;;;;;9.88;6.43;;;;;;;12.75;78.81;100436.28;6241876;22;20028;-62
2022/09/30 03:40:16;;;;;;;10.05;5.88;;;;;;;12.59;78.85;100444.34;6250931;22;20019;-62
2022/09/30 03:42:47;;;;;;;10.65;6.22;;;;;;;12.69;78.96;100451.44;6225137;22;20030;-63
2022/09/30 03:45:27;;;;;;;10.48;5.82;;;;;;;12.76;79.13;100454.50;6250639;22;20019;-63
2022/09/30 03:47:57;;;;;;;12.98;6.30;;;;;;;12.73;77.94;100461.50;6250647;22;20016;-64
2022/09/30 03:50:25;;;;;;;;;;;;;;;12.75;79.38;100466.69;6251171;22;20019;-63
2022/09/30 03:52:52;;;;;;;8.65;5.70;;;;;;;12.76;78.79;100474.63;6251008;22;19921;-61
2022/09/30 03:55:21;;;;;;;12.50;6.50;;;;;;;12.77;78.61;100479.03;6249329;22;20020;-63
2022/09/30 03:57:50;;;;;;;11.65;7.20;;;;;;;12.67;78.58;100484.94;6250882;22;20094;-67
2022/09/30 04:00:17;;;;;;;10.18;6.28;;;;;;;12.59;78.25;100482.22;6276993;22;20081;-68
2022/09/30 04:02:45;;;;;;;9.50;6.82;;;;;;;12.61;78.72;100485.44;6277114;22;20034;-68
2022/09/30 04:05:12;;;;;;;12.13;5.88;;;;;;;12.71;79.22;100494.19;6277262;22;20019;-68
2022/09/30 04:07:39;;;;;;;11.15;6.93;;;;;;;12.70;79.13;100494.50;6250928;22;20020;-67
2022/09/30 04:10:07;;;;;;;11.65;6.95;;;;;;;12.75;78.73;100500.66;6279451;22;20012;-68
2022/09/30 04:12:35;;;;;;;11.90;6.80;;;;;;;12.74;78.93;100501.81;6251236;22;20024;-67
2022/09/30 04:15:02;;;;;;;10.35;6.43;;;;;;;12.76;78.62;100507.81;6278521;22;20039;-67
2022/09/30 04:17:29;;;;;;;9.80;6.47;;;;;;;12.76;78.14;100510.56;6249631;22;20024;-67
2022/09/30 04:19:57;;;;;;;12.55;6.40;;;;;;;12.79;78.18;100517.38;6252275;22;20026;-67
2022/09/30 04:22:24;;;;;;;12.13;6.75;;;;;;;12.75;78.24;100521.97;6251011;22;20026;-68
2022/09/30 04:24:52;;;;;;;11.45;6.35;;;;;;;12.66;78.85;100527.53;6279454;22;20022;-68
2022/09/30 04:27:20;;;;;;;10.23;6.30;;;;;;;12.68;78.82;100528.00;6261780;22;20464;-68
2022/09/30 04:29:47;;;;;;;12.35;6.15;;;;;;;12.75;78.75;100531.06;6279656;22;20031;-68
2022/09/30 04:32:14;;;;;;;10.13;6.78;;;;;;;12.67;78.17;100540.22;6278273;22;20020;-67
2022/09/30 04:34:41;;;;;;;11.10;6.10;;;;;;;12.70;77.69;100533.19;6279683;22;20022;-68
2022/09/30 04:37:09;;;;;;;9.80;6.63;;;;;;;12.72;78.65;100539.22;6279405;22;20042;-68
2022/09/30 04:39:37;;;;;;;11.90;6.15;;;;;;;12.78;78.66;100530.41;6251189;22;20030;-67
2022/09/30 04:42:05;;;;;;;11.25;6.28;;;;;;;12.63;76.57;100539.25;6277975;22;20016;-67
2022/09/30 04:44:34;;;;;;;12.77;6.80;;;;;;;12.39;75.25;100537.06;6279150;22;20019;-67
2022/09/30 04:47:01;;;;;;;9.80;5.78;;;;;;;12.52;79.68;100551.78;6279408;22;20463;-68
2022/09/30 04:49:28;;;;;;;11.38;6.43;;;;;;;12.54;77.97;100552.28;6279508;22;20016;-67
2022/09/30 04:51:56;;;;;;;8.85;6.50;;;;;;;12.54;79.77;100548.69;6278750;22;20327;-66
2022/09/30 04:54:23;;;;;;;11.40;6.50;;;;;;;12.67;78.78;100547.69;6279063;22;20026;-67
2022/09/30 04:56:51;;;;;;;13.43;6.85;;;;;;;12.76;78.89;100545.72;6251222;22;20026;-67
2022/09/30 04:59:18;;;;;;;10.52;6.88;;;;;;;12.43;75.82;100551.00;6278431;22;20026;-68
2022/09/30 05:01:45;;;;;;;11.32;7.30;;;;;;;12.51;77.32;100541.06;6279078;22;20016;-69
2022/09/30 05:04:15;;;;;;;11.10;7.45;;;;;;;12.33;78.32;100554.94;6278934;22;20030;-67
2022/09/30 05:06:42;;;;;;;12.40;7.05;;;;;;;12.53;79.21;100556.19;6249444;22;20016;-68
2022/09/30 05:09:09;;;;;;;10.27;7.13;;;;;;;12.47;77.75;100557.50;6279486;22;20020;-68
2022/09/30 05:11:37;;;;;;;14.02;7.60;;;;;;;12.26;77.35;100570.38;6249674;22;20016;-67
2022/09/30 05:14:10;;;;;;;15.05;7.93;;;;;;;12.09;76.82;100567.66;6249751;22;20022;-68
2022/09/30 05:16:37;;;;;;;10.32;7.30;;;;;;;11.95;79.93;100561.50;6249983;22;20034;-67
2022/09/30 05:19:04;;;;;;;14.00;7.55;;;;;;;12.23;79.73;100568.28;6250558;22;20020;-68
2022/09/30 05:21:32;;;;;;;15.10;7.80;;;;;;;12.12;78.72;100556.78;6252172;22;20019;-68
2022/09/30 05:23:59;;;;;;;13.15;7.63;;;;;;;12.16;79.45;100562.47;6251669;22;20031;-68
2022/09/30 05:26:26;;;;;;;9.52;7.15;;;;;;;12.29;79.77;100567.00;6251599;22;20019;-68
2022/09/30 05:28:54;;;;;;;12.95;6.95;;;;;;;12.38;79.87;100565.81;6250293;22;20020;-68
2022/09/30 05:31:21;;;;;;;11.02;7.30;;;;;;;12.45;79.14;100566.13;6278214;22;20462;-67
2022/09/30 05:33:48;;;;;;;12.00;6.93;;;;;;;12.36;79.27;100568.09;6278792;22;20321;-68
2022/09/30 05:36:20;;;;;;;13.43;7.50;;;;;;;12.48;80.08;100572.94;6250460;22;20023;-66
2022/09/30 05:38:51;;;;;;;17.08;7.07;;;;;;;12.58;79.88;100569.00;6278849;22;20015;-67
2022/09/30 05:41:19;;;;;;;11.63;7.45;;;;;;;12.60;79.24;100570.31;6277516;22;20443;-67
2022/09/30 05:43:47;;;;;;;14.80;7.93;;;;;;;12.58;77.82;100580.06;6276483;22;20030;-68
2022/09/30 05:46:18;;;;;;;15.38;9.55;;;;;;;12.46;77.93;100578.00;6278324;22;20015;-67
2022/09/30 05:48:45;;;;;;;21.15;13.30;;;;;;;12.53;79.37;100578.31;6279007;22;20020;-68
2022/09/30 05:51:13;;;;;;;17.20;11.18;;;;;;;12.56;79.28;100590.63;6278207;22;20042;-67
2022/09/30 05:53:41;;;;;;;10.95;8.52;;;;;;;12.53;78.51;100586.59;6277632;22;20020;-67
2022/09/30 05:56:09;;;;;;;13.68;7.78;;;;;;;12.47;78.62;100585.13;6277355;22;20084;-66
2022/09/30 05:58:37;;;;;;;15.88;8.30;;;;;;;12.56;78.94;100579.56;6278374;22;20012;-68
2022/09/30 06:01:07;;;;;;;11.38;8.15;;;;;;;12.55;78.37;100586.25;6251298;22;20016;-67
2022/09/30 06:03:40;;;;;;;11.90;7.82;;;;;;;12.41;77.31;100580.94;6238393;22;20016;-67
2022/09/30 06:06:07;;;;;;;11.82;8.00;;;;;;;12.37;77.96;100596.53;6278548;22;20019;-68
2022/09/30 06:08:35;;;;;;;13.82;7.97;;;;;;;12.49;78.81;100604.94;6278647;22;20019;-68
2022/09/30 06:11:10;;;;;;;12.20;7.95;;;;;;;12.48;77.49;100604.13;6249787;22;20026;-68
2022/09/30 06:13:39;;;;;;;13.20;8.65;;;;;;;12.56;78.30;100598.91;6252034;22;20020;-67
2022/09/30 06:16:07;;;;;;;14.95;8.18;;;;;;;12.58;77.93;100610.44;6278098;22;20015;-67
2022/09/30 06:18:35;;;;;;;12.48;8.40;;;;;;;12.51;77.05;100613.72;6277784;22;20058;-68
2022/09/30 06:21:03;;;;;;;17.15;7.75;;;;;;;12.44;77.63;100619.75;6224137;22;20016;-69
2022/09/30 06:23:33;;;;;;;12.70;7.90;;;;;;;12.38;77.68;100621.06;6251377;22;20016;-66
2022/09/30 06:26:03;;;;;;;12.82;8.15;;;;;;;12.45;78.38;100621.38;6277240;22;20016;-67
2022/09/30 06:28:33;;;;;;;14.43;8.02;;;;;;;12.56;79.23;100638.41;6276013;22;20020;-66
2022/09/30 06:31:04;;;;;;;16.38;8.82;;;;;;;12.61;79.59;100637.41;6277628;22;20019;-68
2022/09/30 06:33:31;;;;;;;15.27;8.35;;;;;;;12.58;78.93;100644.44;6288404;22;20316;-71
2022/09/30 06:36:03;;;;;;;15.77;8.48;;;;;;;12.67;80.68;100642.47;6277650;22;20018;-68
2022/09/30 06:38:31;;;;;;;21.73;9.23;;;;;;;12.76;82.34;100636.91;6278254;22;20024;-66
2022/09/30 06:40:59;;;;;;;11.65;7.85;;;;;;;12.86;82.88;100636.53;6273170;22;20023;-67
2022/09/30 06:43:26;;;;;;;17.42;8.65;;;;;;;12.89;81.84;100636.69;6276366;22;20042;-68
2022/09/30 06:45:53;;;;;;;18.23;9.00;;;;;;;12.99;81.92;100633.56;6250622;22;20019;-67
2022/09/30 06:48:35;;;;;;;48.42;10.93;;;;;;;13.11;81.76;100643.97;6274365;22;20019;-67
2022/09/30 06:51:05;;;;;;;;;;;;;;;13.10;82.25;100645.09;6224183;22;20020;-68
2022/09/30 06:53:34;;;;;;;26.50;9.80;;;;;;;13.10;81.99;100647.88;6223469;22;20216;-67
2022/09/30 06:56:01;;;;;;;24.33;11.25;;;;;;;13.05;80.46;100646.09;6275984;22;20042;-67
2022/09/30 06:58:29;;;;;;;17.20;9.93;;;;;;;13.05;79.69;100646.09;6277618;22;20041;-66
2022/09/30 07:00:59;;;;;;;25.33;10.65;;;;;;;13.14;78.50;100652.41;6249342;22;20016;-68
2022/09/30 07:03:30;;;;;;;24.92;10.45;;;;;;;13.18;78.10;100652.56;6251329;22;20038;-67
2022/09/30 07:06:00;;;;;;;28.38;10.95;;;;;;;13.26;77.71;100646.16;6274626;22;20023;-67
2022/09/30 07:08:30;;;;;;;26.85;10.70;;;;;;;13.29;77.21;100651.84;6250187;22;20020;-69
2022/09/30 07:10:58;;;;;;;21.58;14.15;;;;;;;13.31;77.33;100648.75;6249186;22;20474;-67
2022/09/30 07:13:26;;;;;;;40.65;25.02;;;;;;;13.40;76.35;100642.03;6248300;22;20039;-68
2022/09/30 07:15:55;;;;;;;41.25;19.50;;;;;;;13.42;76.28;100638.94;6275618;22;20027;-69
2022/09/30 07:18:23;;;;;;;27.55;11.70;;;;;;;13.42;76.00;100633.41;6247238;22;20016;-67
2022/09/30 07:20:53;;;;;;;17.02;10.93;;;;;;;13.41;75.46;100637.28;6277117;22;20031;-68
2022/09/30 07:23:21;;;;;;;28.42;10.85;;;;;;;13.43;75.33;100638.59;6247071;22;20438;-68
2022/09/30 07:25:59;;;;;;;36.40;11.23;;;;;;;13.45;75.15;100641.84;6247148;22;20039;-67
2022/09/30 07:28:30;;;;;;;34.75;11.45;;;;;;;13.52;74.76;100644.91;6275340;22;20016;-63
2022/09/30 07:31:00;;;;;;;25.10;10.35;;;;;;;13.57;74.55;100650.22;6275404;22;20027;-65
2022/09/30 07:33:50;;;;;;;21.20;9.88;;;;;;;13.63;73.66;100656.38;6273008;22;20021;-63
2022/09/30 07:36:29;;;;;;;22.27;11.60;;;;;;;13.68;73.72;100658.13;6276018;22;20020;-64
2022/09/30 07:39:05;;;;;;;24.55;11.73;;;;;;;13.70;73.30;100659.44;6224248;22;20026;-63
2022/09/30 07:41:36;;;;;;;29.17;12.05;;;;;;;13.65;72.20;100656.06;6246592;22;20015;-63
2022/09/30 07:44:07;;;;;;;26.17;11.57;;;;;;;13.77;72.60;100661.66;6277661;22;20020;-63
2022/09/30 07:46:37;;;;;;;16.98;11.20;;;;;;;13.83;72.16;100665.84;6222315;22;20020;-65
2022/09/30 07:49:07;;;;;;;;;;;;;;;13.58;71.15;100668.44;6272885;22;20023;-64
2022/09/30 07:51:37;;;;;;;22.55;12.18;;;;;;;13.39;71.86;100654.22;6220644;22;19991;-64
2022/09/30 07:54:09;;;;;;;22.92;12.93;;;;;;;13.43;72.07;100660.72;6278739;22;20034;-63
2022/09/30 07:56:38;;;;;;;21.85;12.07;;;;;;;13.53;72.18;100665.06;6275334;22;20020;-64
2022/09/30 07:59:28;;;;;;;23.77;13.13;;;;;;;13.47;70.60;100664.47;6277102;22;20015;-64
2022/09/30 08:01:55;;;;;;;31.90;14.80;;;;;;;13.41;71.75;100668.53;6222824;22;20015;-63
2022/09/30 08:04:24;;;;;;;30.23;18.25;;;;;;;13.49;72.29;100664.91;6277497;22;20019;-64
2022/09/30 08:06:55;;;;;;;22.35;13.60;;;;;;;13.48;71.08;100668.84;6276031;22;20658;-64
2022/09/30 08:09:24;;;;;;;21.58;12.80;;;;;;;13.52;71.42;100669.81;6277788;22;20020;-64
2022/09/30 08:11:53;;;;;;;24.58;13.68;;;;;;;13.61;71.31;100666.16;6278608;22;20023;-64
2022/09/30 08:14:23;;;;;;;25.75;13.13;;;;;;;13.50;71.00;100654.66;6248474;22;20020;-64
2022/09/30 08:16:51;;;;;;;27.17;13.10;;;;;;;13.43;71.82;100663.50;6251167;22;20016;-66
2022/09/30 08:19:21;;;;;;;24.92;12.07;;;;;;;13.39;71.48;100667.25;6251500;22;20027;-65
2022/09/30 08:21:49;;;;;;;27.35;13.48;;;;;;;13.41;72.29;100668.53;6276749;22;20020;-64
2022/09/30 08:24:16;;;;;;;19.52;12.95;;;;;;;13.69;71.46;100668.06;6278110;22;20022;-64
2022/09/30 08:26:44;;;;;;;21.63;13.02;;;;;;;13.71;71.28;100665.75;6276785;22;20023;-65
2022/09/30 08:29:13;;;;;;;22.95;13.27;;;;;;;13.79;71.13;100671.25;6275902;22;20395;-63
2022/09/30 08:31:47;;;;;;;26.15;13.18;;;;;;;13.90;71.02;100668.91;6251526;22;20015;-64
2022/09/30 08:34:14;;;;;;;28.60;13.32;;;;;;;14.02;70.73;100663.41;6251106;22;20023;-64
2022/09/30 08:36:41;;;;;;;20.52;13.73;;;;;;;13.97;69.12;100663.63;6277611;22;20043;-64
2022/09/30 08:39:09;;;;;;;22.95;14.40;;;;;;;13.96;69.57;100668.38;6278102;22;20027;-64
2022/09/30 08:41:54;;;;;;;24.73;13.82;;;;;;;13.78;69.67;100674.34;6276235;22;20285;-63
2022/09/30 08:44:39;;;;;;;23.13;14.70;;;;;;;13.97;70.16;100671.94;6225516;22;20015;-63
2022/09/30 08:47:30;;;;;;;22.67;13.55;;;;;;;14.02;70.31;100677.28;6275542;22;20023;-63
2022/09/30 08:50:04;;;;;;;24.45;13.10;;;;;;;14.15;69.45;100670.66;6249230;22;20027;-64
2022/09/30 08:52:35;;;;;;;23.20;12.50;;;;;;;14.16;69.77;100666.72;6276984;22;20509;-63
2022/09/30 08:55:24;;;;;;;27.95;13.57;;;;;;;14.29;69.37;100662.91;6277630;22;20019;-63
2022/09/30 08:57:54;;;;;;;18.05;11.98;;;;;;;14.05;66.30;100669.09;6249456;22;20015;-64
2022/09/30 09:00:22;;;;;;;19.33;12.25;;;;;;;14.05;66.29;100671.09;6247896;22;20015;-64
2022/09/30 09:02:54;;;;;;;16.17;10.35;;;;;;;14.25;68.12;100670.25;6276387;22;20016;-63
2022/09/30 09:05:40;;;;;;;15.88;9.38;;;;;;;14.43;67.98;100667.03;6249705;22;20016;-62
2022/09/30 09:08:35;;;;;;;12.77;7.15;;;;;;;14.50;66.13;100667.31;6223271;22;20020;-63
2022/09/30 09:11:12;;;;;;;16.63;7.03;;;;;;;14.74;63.86;100674.88;6275469;22;20523;-63
2022/09/30 09:13:52;;;;;;;9.90;6.18;;;;;;;14.79;66.36;100665.50;6271888;22;20632;-64
2022/09/30 09:16:27;;;;;;;131.63;13.93;;;;;;;14.70;65.92;100670.38;6276282;22;20024;-64
2022/09/30 09:19:09;;;;;;;10.75;5.75;;;;;;;14.44;63.27;100674.19;6227723;22;20020;-62
2022/09/30 09:21:53;;;;;;;10.88;5.68;;;;;;;14.86;66.18;100682.41;6273593;22;20023;-63
2022/09/30 09:24:29;;;;;;;16.13;5.30;;;;;;;15.00;64.60;100686.50;6249925;22;20027;-64
2022/09/30 09:27:00;;;;;;;14.68;6.07;;;;;;;14.69;59.48;100683.41;6277027;22;20027;-64
2022/09/30 09:29:52;;;;;;;15.63;5.78;;;;;;;14.83;64.06;100683.09;6248750;22;20023;-63
2022/09/30 09:32:20;;;;;;;13.90;5.70;;;;;;;15.01;65.05;100685.31;6218524;22;20030;-64
2022/09/30 09:34:54;;;;;;;13.73;8.93;;;;;;;15.22;62.26;100682.50;6275784;22;20016;-63
2022/09/30 09:38:23;;;;;;;15.70;7.35;;;;;;;15.30;62.62;100701.81;6249571;22;20020;-63
2022/09/30 09:40:55;;;;;;;13.45;7.13;;;;;;;15.61;62.30;100685.44;6253470;22;20016;-63
2022/09/30 09:43:35;;;;;;;15.35;6.53;;;;;;;15.63;63.11;100685.91;6249408;22;20016;-64
2022/09/30 09:46:07;;;;;;;23.15;6.57;;;;;;;15.54;64.86;100687.16;6272928;22;20015;-63
2022/09/30 09:48:36;;;;;;;20.85;6.57;;;;;;;15.78;60.41;100693.50;6248794;22;20024;-63
2022/09/30 09:51:23;;;;;;;14.43;5.72;;;;;;;15.68;61.25;100695.94;6234651;22;20022;-64
2022/09/30 09:53:56;;;;;;;16.90;5.80;;;;;;;15.51;62.21;100690.63;6250326;22;20012;-66
2022/09/30 09:56:32;;;;;;;13.68;6.97;;;;;;;15.33;60.84;100692.78;6273864;22;20020;-64
2022/09/30 09:59:09;;;;;;;11.23;5.95;;;;;;;15.59;59.84;100682.19;6276810;22;20023;-63
2022/09/30 10:01:40;;;;;;;16.10;7.57;;;;;;;15.72;60.83;100683.81;6247507;22;20027;-62
2022/09/30 10:04:26;;;;;;;77.20;11.57;;;;;;;15.73;62.99;100679.88;6248457;22;20016;-64
2022/09/30 10:06:59;;;;;;;18.83;5.72;;;;;;;15.98;61.58;100682.59;6224848;22;20019;-63
2022/09/30 10:09:30;;;;;;;10.18;4.38;;;;;;;15.90;59.81;100680.78;6225397;22;20030;-64
2022/09/30 10:12:04;;;;;;;10.73;4.50;;;;;;;16.03;60.45;100679.59;6276685;22;20347;-63
2022/09/30 10:14:59;;;;;;;8.82;4.93;;;;;;;15.77;55.80;100678.03;6248269;22;20015;-64
2022/09/30 10:17:33;;;;;;;11.00;6.32;;;;;;;15.54;56.33;100684.38;6250438;22;20016;-62
2022/09/30 10:20:27;;;;;;;12.88;5.15;;;;;;;15.95;59.10;100686.09;6275083;22;20033;-63
2022/09/30 10:23:09;;;;;;;12.10;5.22;;;;;;;16.04;57.34;100678.44;6270868;22;20022;-63
2022/09/30 10:25:36;;;;;;;14.50;6.60;;;;;;;16.33;56.55;100686.44;6276813;22;20012;-62
2022/09/30 10:28:21;;;;;;;11.48;4.78;;;;;;;15.92;56.92;100678.47;6247886;22;20031;-63
2022/09/30 10:31:00;;;;;;;8.73;4.55;;;;;;;15.91;59.55;100682.38;6276192;22;20016;-62
2022/09/30 10:33:45;;;;;;;10.45;4.70;;;;;;;16.44;53.73;100679.25;6277087;22;20015;-63
2022/09/30 10:36:15;;;;;;;10.35;4.85;;;;;;;16.23;57.51;100692.50;6246922;22;20020;-64
2022/09/30 10:39:05;;;;;;;16.30;7.45;;;;;;;15.84;55.29;100679.38;6275213;22;20026;-63
2022/09/30 10:41:37;;;;;;;20.30;10.65;;;;;;;15.50;59.15;100687.03;6275478;22;20023;-64
2022/09/30 10:44:12;;;;;;;22.92;9.32;;;;;;;15.88;59.27;100680.31;6277162;22;20016;-64
2022/09/30 10:46:40;;;;;;;25.33;11.77;;;;;;;16.14;59.81;100683.50;6197200;22;20486;-64
2022/09/30 10:49:17;;;;;;;11.40;6.50;;;;;;;16.16;56.76;100675.63;6249860;22;20359;-63
2022/09/30 10:51:45;;;;;;;9.38;4.15;;;;;;;16.43;57.92;100672.88;6248899;22;20023;-63
2022/09/30 10:54:38;;;;;;;10.82;4.35;;;;;;;16.65;58.42;100677.06;6276514;22;20019;-64
2022/09/30 10:57:23;;;;;;;17.60;8.27;;;;;;;16.22;53.54;100680.59;6247893;22;20900;-63
2022/09/30 11:00:00;;;;;;;11.23;5.05;;;;;;;15.58;54.05;100682.53;6248998;22;20020;-64
2022/09/30 11:02:48;;;;;;;9.18;5.20;;;;;;;16.01;58.27;100668.81;6247851;22;20020;-62
2022/09/30 11:05:41;;;;;;;7.15;3.85;;;;;;;16.69;56.45;100678.81;6198160;22;20023;-63
2022/09/30 11:08:22;;;;;;;14.95;4.68;;;;;;;16.56;56.94;100674.44;6274808;22;20023;-64
2022/09/30 11:11:00;;;;;;;21.75;5.57;;;;;;;16.77;56.78;100674.25;6248338;22;20038;-62
2022/09/30 11:13:42;;;;;;;16.17;8.45;;;;;;;16.32;52.08;100665.38;6251594;22;20019;-64
2022/09/30 11:16:26;;;;;;;19.35;10.73;;;;;;;16.30;54.22;100679.63;6249297;22;20019;-63
2022/09/30 11:19:06;;;;;;;31.52;9.65;;;;;;;16.64;55.48;100679.06;6245772;22;20027;-62
2022/09/30 11:21:49;;;;;;;17.88;7.10;;;;;;;16.84;54.96;100669.69;6272594;22;20024;-63
2022/09/30 11:24:39;;;;;;;12.50;6.60;;;;;;;17.17;54.44;100668.56;6277177;22;20486;-62
2022/09/30 11:27:38;;;;;;;14.27;5.78;;;;;;;17.28;52.82;100666.84;6278214;22;20018;-62
2022/09/30 11:30:11;;;;;;;24.90;4.65;;;;;;;17.26;50.16;100666.41;6277660;22;20031;-63
2022/09/30 11:32:55;;;;;;;10.68;4.40;;;;;;;17.44;51.67;100668.47;6277189;22;20019;-62
2022/09/30 11:36:07;;;;;;;16.70;5.90;;;;;;;17.64;53.01;100669.38;6250583;22;20020;-62
2022/09/30 11:38:56;;;;;;;14.00;7.75;;;;;;;17.98;52.64;100672.16;6278711;22;20024;-63
2022/09/30 11:41:32;;;;;;;15.50;8.32;;;;;;;18.07;53.06;100674.75;6251089;22;20027;-63
2022/09/30 11:47:52;;;;;;;12.93;5.25;;;;;;;17.74;47.28;100675.19;6249093;22;20031;-62
2022/09/30 12:00:57;;;;;;;8.85;2.45;;;;;;;17.81;48.16;100663.41;6254819;22;20020;-64
2022/09/30 12:04:39;;;;;;;9.80;2.40;;;;;;;17.40;48.36;100661.19;6278748;22;20007;-63